sensor_id;sensor_type;location;lat;lon;timestamp;P1;durP1;ratioP1;P2;durP2;ratioP2
10945;SDS011;5525;42.648;23.368;2023-12-29T00:01:24;23.33;;;14.98;;
10945;SDS011;5525;42.648;23.368;2023-12-29T00:03:55;26.65;;;16.65;;
10945;SDS011;5525;42.648;23.368;2023-12-29T00:06:23;34.03;;;18.75;;
10945;SDS011;5525;42.648;23.368;2023-12-29T00:08:50;33.85;;;19.25;;
10945;SDS011;5525;42.648;23.368;2023-12-29T00:11:17;28.17;;;18.90;;
10945;SDS011;5525;42.648;23.368;2023-12-29T00:13:44;28.77;;;17.73;;
10945;SDS011;5525;42.648;23.368;2023-12-29T00:16:10;27.80;;;18.00;;
10945;SDS011;5525;42.648;23.368;2023-12-29T00:18:37;28.77;;;17.50;;
10945;SDS011;5525;42.648;23.368;2023-12-29T00:21:04;28.77;;;17.73;;
10945;SDS011;5525;42.648;23.368;2023-12-29T00:23:33;27.33;;;17.48;;
10945;SDS011;5525;42.648;23.368;2023-12-29T00:26:00;27.58;;;17.02;;
10945;SDS011;5525;42.648;23.368;2023-12-29T00:28:27;29.45;;;17.67;;
10945;SDS011;5525;42.648;23.368;2023-12-29T00:30:54;30.95;;;19.42;;
10945;SDS011;5525;42.648;23.368;2023-12-29T00:33:20;27.08;;;17.40;;
10945;SDS011;5525;42.648;23.368;2023-12-29T00:35:47;29.88;;;17.67;;
10945;SDS011;5525;42.648;23.368;2023-12-29T00:38:14;25.08;;;16.25;;
10945;SDS011;5525;42.648;23.368;2023-12-29T00:40:42;27.08;;;16.02;;
10945;SDS011;5525;42.648;23.368;2023-12-29T00:43:09;26.98;;;16.10;;
10945;SDS011;5525;42.648;23.368;2023-12-29T00:45:35;26.77;;;17.13;;
10945;SDS011;5525;42.648;23.368;2023-12-29T00:48:02;27.13;;;16.98;;
10945;SDS011;5525;42.648;23.368;2023-12-29T00:50:30;25.75;;;16.52;;
10945;SDS011;5525;42.648;23.368;2023-12-29T00:52:56;29.92;;;16.95;;
10945;SDS011;5525;42.648;23.368;2023-12-29T00:55:23;23.88;;;14.60;;
10945;SDS011;5525;42.648;23.368;2023-12-29T00:57:53;17.58;;;11.70;;
10945;SDS011;5525;42.648;23.368;2023-12-29T01:00:20;21.63;;;11.40;;
10945;SDS011;5525;42.648;23.368;2023-12-29T01:02:47;17.90;;;10.82;;
10945;SDS011;5525;42.648;23.368;2023-12-29T01:05:14;23.70;;;14.70;;
10945;SDS011;5525;42.648;23.368;2023-12-29T01:07:42;20.42;;;13.25;;
10945;SDS011;5525;42.648;23.368;2023-12-29T01:10:09;21.67;;;13.45;;
10945;SDS011;5525;42.648;23.368;2023-12-29T01:12:36;22.70;;;14.80;;
10945;SDS011;5525;42.648;23.368;2023-12-29T01:15:05;21.67;;;14.77;;
10945;SDS011;5525;42.648;23.368;2023-12-29T01:17:32;23.00;;;14.32;;
10945;SDS011;5525;42.648;23.368;2023-12-29T01:19:59;24.55;;;14.30;;
10945;SDS011;5525;42.648;23.368;2023-12-29T01:22:28;20.63;;;13.88;;
10945;SDS011;5525;42.648;23.368;2023-12-29T01:24:55;20.95;;;14.05;;
10945;SDS011;5525;42.648;23.368;2023-12-29T01:27:21;24.10;;;14.00;;
10945;SDS011;5525;42.648;23.368;2023-12-29T01:29:48;21.27;;;13.98;;
10945;SDS011;5525;42.648;23.368;2023-12-29T01:32:17;25.25;;;14.32;;
10945;SDS011;5525;42.648;23.368;2023-12-29T01:34:43;20.58;;;13.65;;
10945;SDS011;5525;42.648;23.368;2023-12-29T01:37:10;22.73;;;14.02;;
10945;SDS011;5525;42.648;23.368;2023-12-29T01:39:37;23.20;;;14.57;;
10945;SDS011;5525;42.648;23.368;2023-12-29T01:42:05;19.50;;;13.68;;
10945;SDS011;5525;42.648;23.368;2023-12-29T01:44:32;21.70;;;14.68;;
10945;SDS011;5525;42.648;23.368;2023-12-29T01:46:59;22.35;;;15.15;;
10945;SDS011;5525;42.648;23.368;2023-12-29T01:49:29;24.67;;;15.25;;
10945;SDS011;5525;42.648;23.368;2023-12-29T01:51:57;19.75;;;12.80;;
10945;SDS011;5525;42.648;23.368;2023-12-29T01:54:25;19.02;;;12.70;;
10945;SDS011;5525;42.648;23.368;2023-12-29T01:56:56;28.40;;;16.85;;
10945;SDS011;5525;42.648;23.368;2023-12-29T01:59:25;23.05;;;15.48;;
10945;SDS011;5525;42.648;23.368;2023-12-29T02:01:53;27.42;;;15.02;;
10945;SDS011;5525;42.648;23.368;2023-12-29T02:04:21;25.08;;;15.57;;
10945;SDS011;5525;42.648;23.368;2023-12-29T02:06:51;24.35;;;14.73;;
10945;SDS011;5525;42.648;23.368;2023-12-29T02:09:18;24.80;;;14.52;;
10945;SDS011;5525;42.648;23.368;2023-12-29T02:11:45;22.77;;;14.55;;
10945;SDS011;5525;42.648;23.368;2023-12-29T02:14:12;20.30;;;14.77;;
10945;SDS011;5525;42.648;23.368;2023-12-29T02:16:43;23.45;;;14.70;;
10945;SDS011;5525;42.648;23.368;2023-12-29T02:19:20;22.40;;;14.35;;
10945;SDS011;5525;42.648;23.368;2023-12-29T02:21:58;25.13;;;14.27;;
10945;SDS011;5525;42.648;23.368;2023-12-29T02:24:25;25.15;;;15.43;;
10945;SDS011;5525;42.648;23.368;2023-12-29T02:26:56;22.08;;;14.23;;
10945;SDS011;5525;42.648;23.368;2023-12-29T02:29:28;21.80;;;14.27;;
10945;SDS011;5525;42.648;23.368;2023-12-29T02:31:59;22.35;;;13.98;;
10945;SDS011;5525;42.648;23.368;2023-12-29T02:34:29;20.95;;;13.75;;
10945;SDS011;5525;42.648;23.368;2023-12-29T02:36:58;22.27;;;14.15;;
10945;SDS011;5525;42.648;23.368;2023-12-29T02:39:26;19.48;;;13.05;;
10945;SDS011;5525;42.648;23.368;2023-12-29T02:41:54;22.38;;;13.70;;
10945;SDS011;5525;42.648;23.368;2023-12-29T02:44:21;23.63;;;13.60;;
10945;SDS011;5525;42.648;23.368;2023-12-29T02:46:48;19.90;;;12.63;;
10945;SDS011;5525;42.648;23.368;2023-12-29T02:49:15;21.25;;;14.98;;
10945;SDS011;5525;42.648;23.368;2023-12-29T02:51:42;21.98;;;14.57;;
10945;SDS011;5525;42.648;23.368;2023-12-29T02:54:11;22.42;;;13.93;;
10945;SDS011;5525;42.648;23.368;2023-12-29T02:56:38;22.17;;;14.25;;
10945;SDS011;5525;42.648;23.368;2023-12-29T02:59:06;24.02;;;14.88;;
10945;SDS011;5525;42.648;23.368;2023-12-29T03:01:33;22.90;;;14.10;;
10945;SDS011;5525;42.648;23.368;2023-12-29T03:04:00;24.88;;;14.68;;
10945;SDS011;5525;42.648;23.368;2023-12-29T03:06:27;22.17;;;14.30;;
10945;SDS011;5525;42.648;23.368;2023-12-29T03:08:54;22.85;;;14.90;;
10945;SDS011;5525;42.648;23.368;2023-12-29T03:11:20;22.23;;;15.65;;
10945;SDS011;5525;42.648;23.368;2023-12-29T03:13:47;23.45;;;14.70;;
10945;SDS011;5525;42.648;23.368;2023-12-29T03:16:15;31.67;;;20.10;;
10945;SDS011;5525;42.648;23.368;2023-12-29T03:18:42;42.05;;;26.50;;
10945;SDS011;5525;42.648;23.368;2023-12-29T03:21:09;52.38;;;30.35;;
10945;SDS011;5525;42.648;23.368;2023-12-29T03:23:35;47.10;;;31.05;;
10945;SDS011;5525;42.648;23.368;2023-12-29T03:26:02;60.08;;;35.05;;
10945;SDS011;5525;42.648;23.368;2023-12-29T03:28:29;51.70;;;32.75;;
10945;SDS011;5525;42.648;23.368;2023-12-29T03:30:56;54.47;;;33.42;;
10945;SDS011;5525;42.648;23.368;2023-12-29T03:33:24;46.92;;;29.23;;
10945;SDS011;5525;42.648;23.368;2023-12-29T03:35:51;43.15;;;26.77;;
10945;SDS011;5525;42.648;23.368;2023-12-29T03:38:17;43.10;;;26.08;;
10945;SDS011;5525;42.648;23.368;2023-12-29T03:40:44;38.60;;;23.90;;
10945;SDS011;5525;42.648;23.368;2023-12-29T03:43:11;45.15;;;27.30;;
10945;SDS011;5525;42.648;23.368;2023-12-29T03:45:38;53.10;;;32.08;;
10945;SDS011;5525;42.648;23.368;2023-12-29T03:48:05;50.00;;;31.98;;
10945;SDS011;5525;42.648;23.368;2023-12-29T03:50:35;45.13;;;27.77;;
10945;SDS011;5525;42.648;23.368;2023-12-29T03:53:01;45.55;;;29.60;;
10945;SDS011;5525;42.648;23.368;2023-12-29T03:55:29;41.78;;;26.42;;
10945;SDS011;5525;42.648;23.368;2023-12-29T03:57:55;40.35;;;25.60;;
10945;SDS011;5525;42.648;23.368;2023-12-29T04:00:22;38.03;;;23.83;;
10945;SDS011;5525;42.648;23.368;2023-12-29T04:02:50;33.05;;;21.13;;
10945;SDS011;5525;42.648;23.368;2023-12-29T04:05:17;26.83;;;16.77;;
10945;SDS011;5525;42.648;23.368;2023-12-29T04:07:45;22.55;;;14.65;;
10945;SDS011;5525;42.648;23.368;2023-12-29T04:10:12;21.75;;;15.07;;
10945;SDS011;5525;42.648;23.368;2023-12-29T04:12:38;26.50;;;15.35;;
10945;SDS011;5525;42.648;23.368;2023-12-29T04:15:05;32.88;;;20.33;;
10945;SDS011;5525;42.648;23.368;2023-12-29T04:17:33;22.55;;;15.80;;
10945;SDS011;5525;42.648;23.368;2023-12-29T04:20:00;23.85;;;14.75;;
10945;SDS011;5525;42.648;23.368;2023-12-29T04:22:27;24.83;;;16.00;;
10945;SDS011;5525;42.648;23.368;2023-12-29T04:24:55;25.60;;;15.25;;
10945;SDS011;5525;42.648;23.368;2023-12-29T04:27:21;25.90;;;15.85;;
10945;SDS011;5525;42.648;23.368;2023-12-29T04:29:48;25.15;;;17.02;;
10945;SDS011;5525;42.648;23.368;2023-12-29T04:32:15;27.83;;;17.35;;
10945;SDS011;5525;42.648;23.368;2023-12-29T04:34:42;21.20;;;13.48;;
10945;SDS011;5525;42.648;23.368;2023-12-29T04:37:09;16.17;;;10.02;;
10945;SDS011;5525;42.648;23.368;2023-12-29T04:39:37;22.85;;;13.93;;
10945;SDS011;5525;42.648;23.368;2023-12-29T04:42:05;17.70;;;11.63;;
10945;SDS011;5525;42.648;23.368;2023-12-29T04:44:32;14.98;;;10.18;;
10945;SDS011;5525;42.648;23.368;2023-12-29T04:46:59;18.05;;;10.15;;
10945;SDS011;5525;42.648;23.368;2023-12-29T04:49:25;19.70;;;12.20;;
10945;SDS011;5525;42.648;23.368;2023-12-29T04:51:52;19.65;;;12.50;;
10945;SDS011;5525;42.648;23.368;2023-12-29T04:54:19;19.40;;;12.45;;
10945;SDS011;5525;42.648;23.368;2023-12-29T04:56:45;17.50;;;12.10;;
10945;SDS011;5525;42.648;23.368;2023-12-29T04:59:14;17.17;;;11.68;;
10945;SDS011;5525;42.648;23.368;2023-12-29T05:01:40;18.52;;;9.88;;
10945;SDS011;5525;42.648;23.368;2023-12-29T05:04:07;17.65;;;10.35;;
10945;SDS011;5525;42.648;23.368;2023-12-29T05:06:34;15.52;;;11.25;;
10945;SDS011;5525;42.648;23.368;2023-12-29T05:09:01;18.42;;;11.25;;
10945;SDS011;5525;42.648;23.368;2023-12-29T05:11:28;19.48;;;11.18;;
10945;SDS011;5525;42.648;23.368;2023-12-29T05:13:55;19.17;;;11.85;;
10945;SDS011;5525;42.648;23.368;2023-12-29T05:16:27;18.58;;;11.18;;
10945;SDS011;5525;42.648;23.368;2023-12-29T05:18:54;19.05;;;12.63;;
10945;SDS011;5525;42.648;23.368;2023-12-29T05:21:21;21.13;;;11.77;;
10945;SDS011;5525;42.648;23.368;2023-12-29T05:23:49;17.38;;;11.80;;
10945;SDS011;5525;42.648;23.368;2023-12-29T05:26:16;19.73;;;11.65;;
10945;SDS011;5525;42.648;23.368;2023-12-29T05:28:43;16.70;;;11.20;;
10945;SDS011;5525;42.648;23.368;2023-12-29T05:31:10;18.55;;;12.15;;
10945;SDS011;5525;42.648;23.368;2023-12-29T05:33:38;18.55;;;12.32;;
10945;SDS011;5525;42.648;23.368;2023-12-29T05:36:08;16.88;;;11.30;;
10945;SDS011;5525;42.648;23.368;2023-12-29T05:38:36;20.13;;;12.57;;
10945;SDS011;5525;42.648;23.368;2023-12-29T05:41:03;24.02;;;14.70;;
10945;SDS011;5525;42.648;23.368;2023-12-29T05:43:31;20.85;;;12.63;;
10945;SDS011;5525;42.648;23.368;2023-12-29T05:45:59;21.60;;;13.55;;
10945;SDS011;5525;42.648;23.368;2023-12-29T05:48:26;26.58;;;14.98;;
10945;SDS011;5525;42.648;23.368;2023-12-29T05:50:54;31.75;;;19.10;;
10945;SDS011;5525;42.648;23.368;2023-12-29T05:53:21;33.70;;;21.10;;
10945;SDS011;5525;42.648;23.368;2023-12-29T05:55:48;34.45;;;22.65;;
10945;SDS011;5525;42.648;23.368;2023-12-29T05:58:15;36.50;;;23.48;;
10945;SDS011;5525;42.648;23.368;2023-12-29T06:00:42;36.80;;;25.02;;
10945;SDS011;5525;42.648;23.368;2023-12-29T06:03:09;44.45;;;26.48;;
10945;SDS011;5525;42.648;23.368;2023-12-29T06:05:36;40.72;;;26.80;;
10945;SDS011;5525;42.648;23.368;2023-12-29T06:08:05;43.08;;;27.00;;
10945;SDS011;5525;42.648;23.368;2023-12-29T06:10:32;39.70;;;24.25;;
10945;SDS011;5525;42.648;23.368;2023-12-29T06:13:01;35.13;;;22.80;;
10945;SDS011;5525;42.648;23.368;2023-12-29T06:15:27;38.88;;;24.70;;
10945;SDS011;5525;42.648;23.368;2023-12-29T06:17:54;37.90;;;24.33;;
10945;SDS011;5525;42.648;23.368;2023-12-29T06:20:21;39.95;;;24.20;;
10945;SDS011;5525;42.648;23.368;2023-12-29T06:22:48;32.50;;;20.70;;
10945;SDS011;5525;42.648;23.368;2023-12-29T06:25:16;33.28;;;20.75;;
10945;SDS011;5525;42.648;23.368;2023-12-29T06:27:43;22.52;;;13.98;;
10945;SDS011;5525;42.648;23.368;2023-12-29T06:30:10;21.88;;;15.48;;
10945;SDS011;5525;42.648;23.368;2023-12-29T06:32:37;30.00;;;19.80;;
10945;SDS011;5525;42.648;23.368;2023-12-29T06:35:05;34.38;;;20.83;;
10945;SDS011;5525;42.648;23.368;2023-12-29T06:37:32;30.27;;;20.33;;
10945;SDS011;5525;42.648;23.368;2023-12-29T06:39:59;30.50;;;21.15;;
10945;SDS011;5525;42.648;23.368;2023-12-29T06:42:27;37.45;;;21.15;;
10945;SDS011;5525;42.648;23.368;2023-12-29T06:44:54;30.85;;;19.00;;
10945;SDS011;5525;42.648;23.368;2023-12-29T06:47:21;33.03;;;20.88;;
10945;SDS011;5525;42.648;23.368;2023-12-29T06:49:48;40.35;;;25.15;;
10945;SDS011;5525;42.648;23.368;2023-12-29T06:52:15;41.58;;;26.63;;
10945;SDS011;5525;42.648;23.368;2023-12-29T06:54:41;35.50;;;22.83;;
10945;SDS011;5525;42.648;23.368;2023-12-29T06:57:08;34.53;;;22.60;;
10945;SDS011;5525;42.648;23.368;2023-12-29T06:59:36;30.20;;;19.88;;
10945;SDS011;5525;42.648;23.368;2023-12-29T07:02:03;29.80;;;18.83;;
10945;SDS011;5525;42.648;23.368;2023-12-29T07:04:31;31.17;;;19.30;;
10945;SDS011;5525;42.648;23.368;2023-12-29T07:06:59;31.30;;;20.50;;
10945;SDS011;5525;42.648;23.368;2023-12-29T07:09:26;32.65;;;19.95;;
10945;SDS011;5525;42.648;23.368;2023-12-29T07:11:53;37.53;;;22.30;;
10945;SDS011;5525;42.648;23.368;2023-12-29T07:14:20;33.13;;;19.52;;
10945;SDS011;5525;42.648;23.368;2023-12-29T07:16:48;28.08;;;18.10;;
10945;SDS011;5525;42.648;23.368;2023-12-29T07:19:15;26.48;;;18.35;;
10945;SDS011;5525;42.648;23.368;2023-12-29T07:21:42;25.65;;;17.80;;
10945;SDS011;5525;42.648;23.368;2023-12-29T07:24:09;23.27;;;14.80;;
10945;SDS011;5525;42.648;23.368;2023-12-29T07:26:36;22.00;;;14.73;;
10945;SDS011;5525;42.648;23.368;2023-12-29T07:29:03;22.73;;;14.70;;
10945;SDS011;5525;42.648;23.368;2023-12-29T07:31:30;26.13;;;16.00;;
10945;SDS011;5525;42.648;23.368;2023-12-29T07:34:00;24.90;;;15.85;;
10945;SDS011;5525;42.648;23.368;2023-12-29T07:36:27;22.27;;;14.98;;
10945;SDS011;5525;42.648;23.368;2023-12-29T07:38:53;24.95;;;16.23;;
10945;SDS011;5525;42.648;23.368;2023-12-29T07:41:20;27.52;;;16.90;;
10945;SDS011;5525;42.648;23.368;2023-12-29T07:43:47;27.83;;;17.95;;
10945;SDS011;5525;42.648;23.368;2023-12-29T07:46:23;27.60;;;17.65;;
10945;SDS011;5525;42.648;23.368;2023-12-29T07:48:50;26.23;;;18.17;;
10945;SDS011;5525;42.648;23.368;2023-12-29T07:51:19;27.90;;;18.63;;
10945;SDS011;5525;42.648;23.368;2023-12-29T07:53:46;28.48;;;19.60;;
10945;SDS011;5525;42.648;23.368;2023-12-29T07:56:12;32.15;;;20.23;;
10945;SDS011;5525;42.648;23.368;2023-12-29T07:58:39;35.55;;;21.98;;
10945;SDS011;5525;42.648;23.368;2023-12-29T08:01:06;35.42;;;22.90;;
10945;SDS011;5525;42.648;23.368;2023-12-29T08:03:33;38.10;;;23.45;;
10945;SDS011;5525;42.648;23.368;2023-12-29T08:06:01;37.35;;;24.95;;
10945;SDS011;5525;42.648;23.368;2023-12-29T08:08:29;37.33;;;24.42;;
10945;SDS011;5525;42.648;23.368;2023-12-29T08:10:56;41.67;;;27.60;;
10945;SDS011;5525;42.648;23.368;2023-12-29T08:13:23;48.45;;;30.25;;
10945;SDS011;5525;42.648;23.368;2023-12-29T08:15:49;46.33;;;28.83;;
10945;SDS011;5525;42.648;23.368;2023-12-29T08:18:16;41.63;;;27.42;;
10945;SDS011;5525;42.648;23.368;2023-12-29T08:20:43;41.33;;;25.88;;
10945;SDS011;5525;42.648;23.368;2023-12-29T08:23:10;45.95;;;24.67;;
10945;SDS011;5525;42.648;23.368;2023-12-29T08:25:38;38.15;;;24.60;;
10945;SDS011;5525;42.648;23.368;2023-12-29T08:28:05;49.67;;;32.67;;
10945;SDS011;5525;42.648;23.368;2023-12-29T08:30:34;55.78;;;34.50;;
10945;SDS011;5525;42.648;23.368;2023-12-29T08:33:01;56.45;;;36.17;;
10945;SDS011;5525;42.648;23.368;2023-12-29T08:35:27;62.65;;;36.17;;
10945;SDS011;5525;42.648;23.368;2023-12-29T08:37:54;55.85;;;34.65;;
10945;SDS011;5525;42.648;23.368;2023-12-29T08:40:21;55.50;;;35.45;;
10945;SDS011;5525;42.648;23.368;2023-12-29T08:42:49;53.08;;;34.40;;
10945;SDS011;5525;42.648;23.368;2023-12-29T08:45:16;54.47;;;33.72;;
10945;SDS011;5525;42.648;23.368;2023-12-29T08:47:42;50.08;;;33.17;;
10945;SDS011;5525;42.648;23.368;2023-12-29T08:50:09;50.70;;;32.00;;
10945;SDS011;5525;42.648;23.368;2023-12-29T08:52:36;46.13;;;29.98;;
10945;SDS011;5525;42.648;23.368;2023-12-29T08:55:03;49.65;;;29.10;;
10945;SDS011;5525;42.648;23.368;2023-12-29T08:57:31;49.15;;;28.70;;
10945;SDS011;5525;42.648;23.368;2023-12-29T09:00:00;45.47;;;28.58;;
10945;SDS011;5525;42.648;23.368;2023-12-29T09:02:28;40.30;;;27.50;;
10945;SDS011;5525;42.648;23.368;2023-12-29T09:04:56;48.15;;;28.95;;
10945;SDS011;5525;42.648;23.368;2023-12-29T09:07:23;43.72;;;28.83;;
10945;SDS011;5525;42.648;23.368;2023-12-29T09:09:50;44.92;;;29.15;;
10945;SDS011;5525;42.648;23.368;2023-12-29T09:12:16;45.53;;;28.38;;
10945;SDS011;5525;42.648;23.368;2023-12-29T09:14:46;41.58;;;26.88;;
10945;SDS011;5525;42.648;23.368;2023-12-29T09:17:15;42.75;;;26.90;;
10945;SDS011;5525;42.648;23.368;2023-12-29T09:19:41;44.08;;;27.08;;
10945;SDS011;5525;42.648;23.368;2023-12-29T09:22:08;43.00;;;27.88;;
10945;SDS011;5525;42.648;23.368;2023-12-29T09:24:35;43.72;;;28.30;;
10945;SDS011;5525;42.648;23.368;2023-12-29T09:27:02;45.95;;;27.17;;
10945;SDS011;5525;42.648;23.368;2023-12-29T09:29:29;42.28;;;26.27;;
10945;SDS011;5525;42.648;23.368;2023-12-29T09:31:56;36.00;;;24.13;;
10945;SDS011;5525;42.648;23.368;2023-12-29T09:34:24;35.83;;;23.77;;
10945;SDS011;5525;42.648;23.368;2023-12-29T09:36:51;37.13;;;23.70;;
10945;SDS011;5525;42.648;23.368;2023-12-29T09:39:18;36.53;;;23.90;;
10945;SDS011;5525;42.648;23.368;2023-12-29T09:41:46;31.08;;;22.45;;
10945;SDS011;5525;42.648;23.368;2023-12-29T09:44:14;34.15;;;23.83;;
10945;SDS011;5525;42.648;23.368;2023-12-29T09:46:41;31.88;;;21.83;;
10945;SDS011;5525;42.648;23.368;2023-12-29T09:49:08;30.10;;;21.67;;
10945;SDS011;5525;42.648;23.368;2023-12-29T09:51:37;27.67;;;19.60;;
10945;SDS011;5525;42.648;23.368;2023-12-29T09:54:06;32.38;;;23.35;;
10945;SDS011;5525;42.648;23.368;2023-12-29T09:56:35;31.98;;;20.05;;
10945;SDS011;5525;42.648;23.368;2023-12-29T09:59:02;29.90;;;20.35;;
10945;SDS011;5525;42.648;23.368;2023-12-29T10:01:30;35.30;;;20.33;;
10945;SDS011;5525;42.648;23.368;2023-12-29T10:03:58;31.80;;;21.98;;
10945;SDS011;5525;42.648;23.368;2023-12-29T10:06:25;38.30;;;24.42;;
10945;SDS011;5525;42.648;23.368;2023-12-29T10:08:54;45.00;;;24.33;;
10945;SDS011;5525;42.648;23.368;2023-12-29T10:11:22;37.75;;;25.25;;
10945;SDS011;5525;42.648;23.368;2023-12-29T10:13:52;35.97;;;25.38;;
10945;SDS011;5525;42.648;23.368;2023-12-29T10:16:23;40.70;;;27.98;;
10945;SDS011;5525;42.648;23.368;2023-12-29T10:18:57;41.90;;;28.98;;
10945;SDS011;5525;42.648;23.368;2023-12-29T10:21:31;41.05;;;28.58;;
10945;SDS011;5525;42.648;23.368;2023-12-29T10:24:09;43.75;;;29.05;;
10945;SDS011;5525;42.648;23.368;2023-12-29T10:26:39;47.15;;;28.98;;
10945;SDS011;5525;42.648;23.368;2023-12-29T10:29:08;44.90;;;28.48;;
10945;SDS011;5525;42.648;23.368;2023-12-29T10:31:36;43.95;;;28.48;;
10945;SDS011;5525;42.648;23.368;2023-12-29T10:34:19;42.33;;;29.17;;
10945;SDS011;5525;42.648;23.368;2023-12-29T10:36:53;41.20;;;28.20;;
10945;SDS011;5525;42.648;23.368;2023-12-29T10:39:21;40.45;;;27.38;;
10945;SDS011;5525;42.648;23.368;2023-12-29T10:41:48;33.10;;;23.85;;
10945;SDS011;5525;42.648;23.368;2023-12-29T10:44:15;37.45;;;26.17;;
10945;SDS011;5525;42.648;23.368;2023-12-29T10:46:42;33.95;;;23.30;;
10945;SDS011;5525;42.648;23.368;2023-12-29T10:49:09;42.10;;;24.98;;
10945;SDS011;5525;42.648;23.368;2023-12-29T10:51:37;42.15;;;26.58;;
10945;SDS011;5525;42.648;23.368;2023-12-29T10:54:04;39.78;;;26.88;;
10945;SDS011;5525;42.648;23.368;2023-12-29T10:56:37;39.53;;;26.60;;
10945;SDS011;5525;42.648;23.368;2023-12-29T10:59:04;37.38;;;24.42;;
10945;SDS011;5525;42.648;23.368;2023-12-29T11:01:32;37.63;;;26.88;;
10945;SDS011;5525;42.648;23.368;2023-12-29T11:04:00;39.53;;;26.63;;
10945;SDS011;5525;42.648;23.368;2023-12-29T11:06:28;38.85;;;27.13;;
10945;SDS011;5525;42.648;23.368;2023-12-29T11:08:56;39.55;;;26.40;;
10945;SDS011;5525;42.648;23.368;2023-12-29T11:11:23;37.25;;;27.30;;
10945;SDS011;5525;42.648;23.368;2023-12-29T11:13:53;39.28;;;26.92;;
10945;SDS011;5525;42.648;23.368;2023-12-29T11:16:20;36.05;;;25.77;;
10945;SDS011;5525;42.648;23.368;2023-12-29T11:18:49;38.25;;;25.13;;
10945;SDS011;5525;42.648;23.368;2023-12-29T11:21:17;41.05;;;24.50;;
10945;SDS011;5525;42.648;23.368;2023-12-29T11:23:48;40.33;;;26.92;;
10945;SDS011;5525;42.648;23.368;2023-12-29T11:26:15;37.13;;;27.13;;
10945;SDS011;5525;42.648;23.368;2023-12-29T11:28:43;37.65;;;26.55;;
10945;SDS011;5525;42.648;23.368;2023-12-29T11:31:13;35.85;;;26.58;;
10945;SDS011;5525;42.648;23.368;2023-12-29T11:33:42;38.95;;;27.33;;
10945;SDS011;5525;42.648;23.368;2023-12-29T11:36:15;37.47;;;27.00;;
10945;SDS011;5525;42.648;23.368;2023-12-29T11:38:48;38.50;;;26.80;;
10945;SDS011;5525;42.648;23.368;2023-12-29T11:41:25;42.15;;;25.73;;
10945;SDS011;5525;42.648;23.368;2023-12-29T11:44:00;42.78;;;26.77;;
10945;SDS011;5525;42.648;23.368;2023-12-29T11:46:35;43.95;;;26.45;;
10945;SDS011;5525;42.648;23.368;2023-12-29T11:49:03;41.55;;;27.02;;
10945;SDS011;5525;42.648;23.368;2023-12-29T11:51:31;36.15;;;26.13;;
10945;SDS011;5525;42.648;23.368;2023-12-29T11:53:59;34.67;;;25.55;;
10945;SDS011;5525;42.648;23.368;2023-12-29T11:56:35;41.45;;;25.67;;
10945;SDS011;5525;42.648;23.368;2023-12-29T11:59:13;38.58;;;26.00;;
10945;SDS011;5525;42.648;23.368;2023-12-29T12:01:41;41.67;;;26.20;;
10945;SDS011;5525;42.648;23.368;2023-12-29T12:07:00;38.47;;;24.60;;
10945;SDS011;5525;42.648;23.368;2023-12-29T12:09:29;34.47;;;25.00;;
10945;SDS011;5525;42.648;23.368;2023-12-29T12:11:56;38.90;;;25.25;;
10945;SDS011;5525;42.648;23.368;2023-12-29T12:17:13;42.40;;;25.75;;
10945;SDS011;5525;42.648;23.368;2023-12-29T12:19:55;35.40;;;25.02;;
10945;SDS011;5525;42.648;23.368;2023-12-29T12:22:23;37.42;;;25.05;;
10945;SDS011;5525;42.648;23.368;2023-12-29T12:24:54;37.40;;;24.42;;
10945;SDS011;5525;42.648;23.368;2023-12-29T12:27:22;38.05;;;24.75;;
10945;SDS011;5525;42.648;23.368;2023-12-29T12:29:51;32.10;;;22.52;;
10945;SDS011;5525;42.648;23.368;2023-12-29T12:32:21;33.53;;;21.75;;
10945;SDS011;5525;42.648;23.368;2023-12-29T12:34:48;38.83;;;23.67;;
10945;SDS011;5525;42.648;23.368;2023-12-29T12:37:18;31.85;;;21.05;;
10945;SDS011;5525;42.648;23.368;2023-12-29T12:39:45;31.63;;;21.23;;
10945;SDS011;5525;42.648;23.368;2023-12-29T12:42:12;35.30;;;22.45;;
10945;SDS011;5525;42.648;23.368;2023-12-29T12:44:40;35.63;;;21.50;;
10945;SDS011;5525;42.648;23.368;2023-12-29T12:47:09;26.42;;;19.17;;
10945;SDS011;5525;42.648;23.368;2023-12-29T12:49:42;30.90;;;21.50;;
10945;SDS011;5525;42.648;23.368;2023-12-29T12:52:09;34.75;;;20.33;;
10945;SDS011;5525;42.648;23.368;2023-12-29T12:54:37;35.15;;;20.75;;
10945;SDS011;5525;42.648;23.368;2023-12-29T12:57:04;39.22;;;20.63;;
10945;SDS011;5525;42.648;23.368;2023-12-29T12:59:31;34.13;;;19.83;;
10945;SDS011;5525;42.648;23.368;2023-12-29T13:01:59;30.75;;;19.95;;
10945;SDS011;5525;42.648;23.368;2023-12-29T13:04:26;29.42;;;20.25;;
10945;SDS011;5525;42.648;23.368;2023-12-29T13:06:54;24.92;;;17.73;;
10945;SDS011;5525;42.648;23.368;2023-12-29T13:09:21;33.58;;;20.65;;
10945;SDS011;5525;42.648;23.368;2023-12-29T13:11:48;31.23;;;19.20;;
10945;SDS011;5525;42.648;23.368;2023-12-29T13:14:20;31.30;;;19.50;;
10945;SDS011;5525;42.648;23.368;2023-12-29T13:16:48;25.65;;;18.77;;
10945;SDS011;5525;42.648;23.368;2023-12-29T13:19:15;32.35;;;20.00;;
10945;SDS011;5525;42.648;23.368;2023-12-29T13:21:45;23.83;;;17.60;;
10945;SDS011;5525;42.648;23.368;2023-12-29T13:24:14;27.73;;;17.10;;
10945;SDS011;5525;42.648;23.368;2023-12-29T13:26:42;25.38;;;16.15;;
10945;SDS011;5525;42.648;23.368;2023-12-29T13:29:13;26.15;;;16.38;;
10945;SDS011;5525;42.648;23.368;2023-12-29T13:31:40;26.75;;;16.75;;
10945;SDS011;5525;42.648;23.368;2023-12-29T13:34:11;22.27;;;15.73;;
10945;SDS011;5525;42.648;23.368;2023-12-29T13:36:42;23.65;;;15.60;;
10945;SDS011;5525;42.648;23.368;2023-12-29T13:39:20;22.15;;;15.63;;
10945;SDS011;5525;42.648;23.368;2023-12-29T13:41:50;23.35;;;15.40;;
10945;SDS011;5525;42.648;23.368;2023-12-29T13:44:17;26.25;;;14.10;;
10945;SDS011;5525;42.648;23.368;2023-12-29T13:46:46;22.20;;;14.02;;
10945;SDS011;5525;42.648;23.368;2023-12-29T13:49:14;20.27;;;14.25;;
10945;SDS011;5525;42.648;23.368;2023-12-29T13:51:42;31.15;;;14.25;;
10945;SDS011;5525;42.648;23.368;2023-12-29T13:54:09;21.42;;;10.57;;
10945;SDS011;5525;42.648;23.368;2023-12-29T13:56:37;13.38;;;7.95;;
10945;SDS011;5525;42.648;23.368;2023-12-29T13:59:04;14.63;;;7.88;;
10945;SDS011;5525;42.648;23.368;2023-12-29T14:01:35;15.63;;;7.65;;
10945;SDS011;5525;42.648;23.368;2023-12-29T14:04:03;12.98;;;7.13;;
10945;SDS011;5525;42.648;23.368;2023-12-29T14:06:37;14.25;;;7.72;;
10945;SDS011;5525;42.648;23.368;2023-12-29T14:09:07;12.85;;;7.50;;
10945;SDS011;5525;42.648;23.368;2023-12-29T14:11:44;11.27;;;7.40;;
10945;SDS011;5525;42.648;23.368;2023-12-29T14:14:12;11.57;;;7.15;;
10945;SDS011;5525;42.648;23.368;2023-12-29T14:16:39;11.43;;;7.00;;
10945;SDS011;5525;42.648;23.368;2023-12-29T14:19:05;13.57;;;8.70;;
10945;SDS011;5525;42.648;23.368;2023-12-29T14:21:33;13.20;;;9.60;;
10945;SDS011;5525;42.648;23.368;2023-12-29T14:24:01;21.83;;;12.45;;
10945;SDS011;5525;42.648;23.368;2023-12-29T14:26:31;20.23;;;11.82;;
10945;SDS011;5525;42.648;23.368;2023-12-29T14:29:06;19.73;;;11.00;;
10945;SDS011;5525;42.648;23.368;2023-12-29T14:31:35;19.65;;;10.80;;